sensor_id;sensor_type;location;lat;lon;timestamp;temperature;humidity
61351;DHT22;47119;49.130;9.218;2022-08-01T00:12:39;21.83;60.95
61351;DHT22;47119;49.130;9.218;2022-08-01T00:15:12;21.82;61.87
61351;DHT22;47119;49.130;9.218;2022-08-01T00:17:44;21.82;60.75
61351;DHT22;47119;49.130;9.218;2022-08-01T00:20:13;21.82;61.50
61351;DHT22;47119;49.130;9.218;2022-08-01T00:22:52;21.83;60.40
61351;DHT22;47119;49.130;9.218;2022-08-01T00:25:19;21.83;61.09
61351;DHT22;47119;49.130;9.218;2022-08-01T00:27:50;21.80;60.99
61351;DHT22;47119;49.130;9.218;2022-08-01T00:30:21;21.83;61.57
61351;DHT22;47119;49.130;9.218;2022-08-01T00:32:48;21.82;60.92
61351;DHT22;47119;49.130;9.218;2022-08-01T00:35:15;21.82;60.96
61351;DHT22;47119;49.130;9.218;2022-08-01T00:37:44;21.80;60.99
61351;DHT22;47119;49.130;9.218;2022-08-01T00:40:16;21.84;60.65
61351;DHT22;47119;49.130;9.218;2022-08-01T00:42:45;21.82;61.07
61351;DHT22;47119;49.130;9.218;2022-08-01T00:45:14;21.83;61.39
61351;DHT22;47119;49.130;9.218;2022-08-01T00:47:41;21.83;61.47
61351;DHT22;47119;49.130;9.218;2022-08-01T00:50:11;21.82;60.65
61351;DHT22;47119;49.130;9.218;2022-08-01T00:52:39;21.83;60.51
61351;DHT22;47119;49.130;9.218;2022-08-01T00:55:14;21.82;60.67
61351;DHT22;47119;49.130;9.218;2022-08-01T00:57:42;21.82;60.72
61351;DHT22;47119;49.130;9.218;2022-08-01T01:00:15;21.80;60.18
61351;DHT22;47119;49.130;9.218;2022-08-01T01:02:42;21.80;60.79
61351;DHT22;47119;49.130;9.218;2022-08-01T01:05:09;21.79;60.11
61351;DHT22;47119;49.130;9.218;2022-08-01T01:07:46;21.80;60.03
61351;DHT22;47119;49.130;9.218;2022-08-01T01:10:22;21.80;59.94
61351;DHT22;47119;49.130;9.218;2022-08-01T01:12:58;21.80;60.02
61351;DHT22;47119;49.130;9.218;2022-08-01T01:15:39;21.79;60.30
61351;DHT22;47119;49.130;9.218;2022-08-01T01:18:13;21.77;60.31
61351;DHT22;47119;49.130;9.218;2022-08-01T01:20:58;21.76;60.44
61351;DHT22;47119;49.130;9.218;2022-08-01T01:23:50;21.76;60.54
61351;DHT22;47119;49.130;9.218;2022-08-01T01:26:31;21.79;60.07
61351;DHT22;47119;49.130;9.218;2022-08-01T01:29:13;21.76;60.58
61351;DHT22;47119;49.130;9.218;2022-08-01T01:31:46;21.80;61.34
61351;DHT22;47119;49.130;9.218;2022-08-01T01:34:21;21.80;60.16
61351;DHT22;47119;49.130;9.218;2022-08-01T01:36:54;21.82;60.43
61351;DHT22;47119;49.130;9.218;2022-08-01T01:39:28;21.79;60.85
61351;DHT22;47119;49.130;9.218;2022-08-01T01:41:57;21.79;60.20
61351;DHT22;47119;49.130;9.218;2022-08-01T01:44:27;21.80;60.68
61351;DHT22;47119;49.130;9.218;2022-08-01T01:46:57;21.80;60.10
61351;DHT22;47119;49.130;9.218;2022-08-01T01:49:32;21.79;60.36
61351;DHT22;47119;49.130;9.218;2022-08-01T01:52:01;21.82;60.55
61351;DHT22;47119;49.130;9.218;2022-08-01T01:54:36;21.80;60.60
61351;DHT22;47119;49.130;9.218;2022-08-01T01:57:06;21.79;60.59
61351;DHT22;47119;49.130;9.218;2022-08-01T01:59:41;21.76;60.45
61351;DHT22;47119;49.130;9.218;2022-08-01T02:02:13;21.80;60.73
61351;DHT22;47119;49.130;9.218;2022-08-01T02:04:45;21.82;60.59
61351;DHT22;47119;49.130;9.218;2022-08-01T02:07:19;21.80;60.63
61351;DHT22;47119;49.130;9.218;2022-08-01T02:09:59;21.82;60.96
61351;DHT22;47119;49.130;9.218;2022-08-01T02:12:32;21.82;61.06
61351;DHT22;47119;49.130;9.218;2022-08-01T02:15:09;21.79;60.81
61351;DHT22;47119;49.130;9.218;2022-08-01T02:17:42;21.82;60.62
61351;DHT22;47119;49.130;9.218;2022-08-01T02:20:19;21.80;60.80
61351;DHT22;47119;49.130;9.218;2022-08-01T02:22:49;21.80;60.81
61351;DHT22;47119;49.130;9.218;2022-08-01T02:25:22;21.77;61.29
61351;DHT22;47119;49.130;9.218;2022-08-01T02:27:56;21.79;60.97
61351;DHT22;47119;49.130;9.218;2022-08-01T02:30:33;21.80;61.21
61351;DHT22;47119;49.130;9.218;2022-08-01T02:33:12;21.79;61.61
61351;DHT22;47119;49.130;9.218;2022-08-01T02:35:50;21.80;61.28
61351;DHT22;47119;49.130;9.218;2022-08-01T02:38:22;21.83;61.21
61351;DHT22;47119;49.130;9.218;2022-08-01T02:40:54;21.82;61.27
61351;DHT22;47119;49.130;9.218;2022-08-01T02:43:28;21.82;61.42
61351;DHT22;47119;49.130;9.218;2022-08-01T02:46:02;21.79;61.33
61351;DHT22;47119;49.130;9.218;2022-08-01T02:48:35;21.79;61.38
61351;DHT22;47119;49.130;9.218;2022-08-01T02:51:06;21.79;61.49
61351;DHT22;47119;49.130;9.218;2022-08-01T02:53:38;21.79;61.48
61351;DHT22;47119;49.130;9.218;2022-08-01T02:56:11;21.79;61.49
61351;DHT22;47119;49.130;9.218;2022-08-01T02:58:41;21.74;61.28
61351;DHT22;47119;49.130;9.218;2022-08-01T03:01:13;21.76;61.41
61351;DHT22;47119;49.130;9.218;2022-08-01T03:03:42;21.74;61.61
61351;DHT22;47119;49.130;9.218;2022-08-01T03:06:10;21.74;61.67
61351;DHT22;47119;49.130;9.218;2022-08-01T03:08:42;21.74;61.60
61351;DHT22;47119;49.130;9.218;2022-08-01T03:11:12;21.73;61.70
61351;DHT22;47119;49.130;9.218;2022-08-01T03:13:41;21.73;61.85
61351;DHT22;47119;49.130;9.218;2022-08-01T03:16:15;21.69;61.72
61351;DHT22;47119;49.130;9.218;2022-08-01T03:18:46;21.70;61.97
61351;DHT22;47119;49.130;9.218;2022-08-01T03:21:15;21.70;61.99
61351;DHT22;47119;49.130;9.218;2022-08-01T03:23:47;21.70;61.86
61351;DHT22;47119;49.130;9.218;2022-08-01T03:26:19;21.69;62.13
61351;DHT22;47119;49.130;9.218;2022-08-01T03:28:47;21.67;62.05
61351;DHT22;47119;49.130;9.218;2022-08-01T03:31:21;21.66;62.10
61351;DHT22;47119;49.130;9.218;2022-08-01T03:33:52;21.69;62.17
61351;DHT22;47119;49.130;9.218;2022-08-01T03:36:25;21.69;62.36
61351;DHT22;47119;49.130;9.218;2022-08-01T03:38:58;21.69;62.37
61351;DHT22;47119;49.130;9.218;2022-08-01T03:41:33;21.66;62.43
61351;DHT22;47119;49.130;9.218;2022-08-01T03:44:08;21.66;62.44
61351;DHT22;47119;49.130;9.218;2022-08-01T03:46:42;21.66;62.45
61351;DHT22;47119;49.130;9.218;2022-08-01T03:49:18;21.63;62.50
61351;DHT22;47119;49.130;9.218;2022-08-01T03:51:49;21.66;62.44
61351;DHT22;47119;49.130;9.218;2022-08-01T03:54:23;21.65;62.44
61351;DHT22;47119;49.130;9.218;2022-08-01T03:56:55;21.66;62.56
61351;DHT22;47119;49.130;9.218;2022-08-01T03:59:24;21.65;62.56
61351;DHT22;47119;49.130;9.218;2022-08-01T04:01:55;21.69;62.67
61351;DHT22;47119;49.130;9.218;2022-08-01T04:04:23;21.63;62.66
61351;DHT22;47119;49.130;9.218;2022-08-01T04:06:50;21.62;62.66
61351;DHT22;47119;49.130;9.218;2022-08-01T04:09:22;21.63;62.71
61351;DHT22;47119;49.130;9.218;2022-08-01T04:11:49;21.65;62.79
61351;DHT22;47119;49.130;9.218;2022-08-01T04:14:16;21.63;62.81
61351;DHT22;47119;49.130;9.218;2022-08-01T04:16:48;21.59;62.89
61351;DHT22;47119;49.130;9.218;2022-08-01T04:19:20;21.62;63.08
61351;DHT22;47119;49.130;9.218;2022-08-01T04:21:50;21.60;63.04
61351;DHT22;47119;49.130;9.218;2022-08-01T04:24:18;21.60;63.12
61351;DHT22;47119;49.130;9.218;2022-08-01T04:26:50;21.63;63.08
61351;DHT22;47119;49.130;9.218;2022-08-01T04:29:20;21.60;63.22
61351;DHT22;47119;49.130;9.218;2022-08-01T04:31:50;21.65;63.36
61351;DHT22;47119;49.130;9.218;2022-08-01T04:34:27;21.62;63.25
61351;DHT22;47119;49.130;9.218;2022-08-01T04:37:01;21.60;63.33
61351;DHT22;47119;49.130;9.218;2022-08-01T04:40:54;21.65;63.36
61351;DHT22;47119;49.130;9.218;2022-08-01T04:43:22;21.65;63.42
61351;DHT22;47119;49.130;9.218;2022-08-01T04:45:53;21.63;63.44
61351;DHT22;47119;49.130;9.218;2022-08-01T04:48:23;21.63;63.42
61351;DHT22;47119;49.130;9.218;2022-08-01T04:50:53;21.62;63.50
61351;DHT22;47119;49.130;9.218;2022-08-01T04:53:20;21.65;63.47
61351;DHT22;47119;49.130;9.218;2022-08-01T04:55:48;21.66;63.49
61351;DHT22;47119;49.130;9.218;2022-08-01T04:58:15;21.66;63.43
61351;DHT22;47119;49.130;9.218;2022-08-01T05:00:42;21.67;63.54
61351;DHT22;47119;49.130;9.218;2022-08-01T05:03:25;21.66;63.65
61351;DHT22;47119;49.130;9.218;2022-08-01T05:05:53;21.67;63.58
61351;DHT22;47119;49.130;9.218;2022-08-01T05:08:23;21.69;63.68
61351;DHT22;47119;49.130;9.218;2022-08-01T05:10:50;21.69;63.80
61351;DHT22;47119;49.130;9.218;2022-08-01T05:13:18;21.67;63.71
61351;DHT22;47119;49.130;9.218;2022-08-01T05:15:45;21.70;63.76
61351;DHT22;47119;49.130;9.218;2022-08-01T05:18:12;21.70;63.74
61351;DHT22;47119;49.130;9.218;2022-08-01T05:20:41;21.70;63.76
61351;DHT22;47119;49.130;9.218;2022-08-01T05:23:14;21.72;63.83
61351;DHT22;47119;49.130;9.218;2022-08-01T05:25:41;21.74;63.87
61351;DHT22;47119;49.130;9.218;2022-08-01T05:28:08;21.76;64.18
61351;DHT22;47119;49.130;9.218;2022-08-01T05:30:38;21.74;63.97
61351;DHT22;47119;49.130;9.218;2022-08-01T05:33:06;21.77;64.41
61351;DHT22;47119;49.130;9.218;2022-08-01T05:35:33;21.77;64.08
61351;DHT22;47119;49.130;9.218;2022-08-01T05:38:21;21.74;64.41
61351;DHT22;47119;49.130;9.218;2022-08-01T05:40:48;21.82;64.10
61351;DHT22;47119;49.130;9.218;2022-08-01T05:43:18;21.83;64.44
61351;DHT22;47119;49.130;9.218;2022-08-01T05:45:47;21.80;64.33
61351;DHT22;47119;49.130;9.218;2022-08-01T05:48:17;21.82;64.75
61351;DHT22;47119;49.130;9.218;2022-08-01T05:50:44;21.80;65.02
61351;DHT22;47119;49.130;9.218;2022-08-01T05:53:15;21.82;64.84
61351;DHT22;47119;49.130;9.218;2022-08-01T05:55:46;21.86;64.85
61351;DHT22;47119;49.130;9.218;2022-08-01T05:58:13;21.83;65.87
61351;DHT22;47119;49.130;9.218;2022-08-01T06:00:43;21.87;65.42
61351;DHT22;47119;49.130;9.218;2022-08-01T06:03:13;21.83;65.08
61351;DHT22;47119;49.130;9.218;2022-08-01T06:05:43;21.87;65.11
61351;DHT22;47119;49.130;9.218;2022-08-01T06:08:13;21.89;64.79
61351;DHT22;47119;49.130;9.218;2022-08-01T06:10:42;21.87;65.17
61351;DHT22;47119;49.130;9.218;2022-08-01T06:13:10;21.90;65.00
61351;DHT22;47119;49.130;9.218;2022-08-01T06:15:38;21.92;64.94
61351;DHT22;47119;49.130;9.218;2022-08-01T06:18:07;21.92;65.27
61351;DHT22;47119;49.130;9.218;2022-08-01T06:20:36;21.92;65.06
61351;DHT22;47119;49.130;9.218;2022-08-01T06:23:04;21.93;65.38
61351;DHT22;47119;49.130;9.218;2022-08-01T06:25:31;21.93;65.17
61351;DHT22;47119;49.130;9.218;2022-08-01T06:28:01;21.96;65.11
61351;DHT22;47119;49.130;9.218;2022-08-01T06:30:58;21.86;65.93
61351;DHT22;47119;49.130;9.218;2022-08-01T06:33:35;21.90;65.78
61351;DHT22;47119;49.130;9.218;2022-08-01T06:36:03;21.93;65.66
61351;DHT22;47119;49.130;9.218;2022-08-01T06:38:30;21.93;65.56
61351;DHT22;47119;49.130;9.218;2022-08-01T06:40:58;21.97;65.73
61351;DHT22;47119;49.130;9.218;2022-08-01T06:43:25;21.98;65.42
61351;DHT22;47119;49.130;9.218;2022-08-01T06:45:52;21.98;65.38
61351;DHT22;47119;49.130;9.218;2022-08-01T06:48:23;21.98;65.48
61351;DHT22;47119;49.130;9.218;2022-08-01T06:50:51;21.93;66.15
61351;DHT22;47119;49.130;9.218;2022-08-01T06:53:33;22.00;65.71
61351;DHT22;47119;49.130;9.218;2022-08-01T06:56:00;21.93;66.66
61351;DHT22;47119;49.130;9.218;2022-08-01T06:58:31;22.00;65.83
61351;DHT22;47119;49.130;9.218;2022-08-01T07:01:04;22.00;65.86
61351;DHT22;47119;49.130;9.218;2022-08-01T07:03:35;22.01;65.64
61351;DHT22;47119;49.130;9.218;2022-08-01T07:06:03;21.96;66.64
61351;DHT22;47119;49.130;9.218;2022-08-01T07:08:30;21.97;66.90
61351;DHT22;47119;49.130;9.218;2022-08-01T07:11:00;22.00;65.77
61351;DHT22;47119;49.130;9.218;2022-08-01T07:13:28;21.97;66.24
61351;DHT22;47119;49.130;9.218;2022-08-01T07:15:57;22.04;65.37
61351;DHT22;47119;49.130;9.218;2022-08-01T07:18:26;22.03;65.99
61351;DHT22;47119;49.130;9.218;2022-08-01T07:20:55;22.01;65.71
61351;DHT22;47119;49.130;9.218;2022-08-01T07:23:22;22.01;66.62
61351;DHT22;47119;49.130;9.218;2022-08-01T07:25:49;22.03;66.01
61351;DHT22;47119;49.130;9.218;2022-08-01T07:28:18;22.03;65.99
61351;DHT22;47119;49.130;9.218;2022-08-01T07:30:45;21.94;66.71
61351;DHT22;47119;49.130;9.218;2022-08-01T07:33:12;22.04;65.96
61351;DHT22;47119;49.130;9.218;2022-08-01T07:35:40;22.10;65.34
61351;DHT22;47119;49.130;9.218;2022-08-01T07:38:08;22.03;66.07
61351;DHT22;47119;49.130;9.218;2022-08-01T07:40:35;22.04;66.21
61351;DHT22;47119;49.130;9.218;2022-08-01T07:43:06;22.03;66.19
61351;DHT22;47119;49.130;9.218;2022-08-01T07:45:33;22.05;65.81
61351;DHT22;47119;49.130;9.218;2022-08-01T07:48:02;22.01;66.72
61351;DHT22;47119;49.130;9.218;2022-08-01T07:50:30;22.00;66.06
61351;DHT22;47119;49.130;9.218;2022-08-01T07:53:04;21.98;66.53
61351;DHT22;47119;49.130;9.218;2022-08-01T07:55:35;22.01;65.95
61351;DHT22;47119;49.130;9.218;2022-08-01T07:58:05;22.05;65.92
61351;DHT22;47119;49.130;9.218;2022-08-01T08:00:38;22.03;66.32
61351;DHT22;47119;49.130;9.218;2022-08-01T08:03:05;22.03;66.54
61351;DHT22;47119;49.130;9.218;2022-08-01T08:05:38;22.10;65.23
61351;DHT22;47119;49.130;9.218;2022-08-01T08:08:30;22.08;65.41
61351;DHT22;47119;49.130;9.218;2022-08-01T08:11:31;22.10;65.45
61351;DHT22;47119;49.130;9.218;2022-08-01T08:14:26;22.08;66.40
61351;DHT22;47119;49.130;9.218;2022-08-01T08:16:55;22.07;66.20
61351;DHT22;47119;49.130;9.218;2022-08-01T08:22:42;22.05;66.25
61351;DHT22;47119;49.130;9.218;2022-08-01T08:25:09;22.08;65.85
61351;DHT22;47119;49.130;9.218;2022-08-01T08:27:38;22.07;66.47
61351;DHT22;47119;49.130;9.218;2022-08-01T08:30:08;22.04;66.47
61351;DHT22;47119;49.130;9.218;2022-08-01T08:32:37;22.07;65.51
61351;DHT22;47119;49.130;9.218;2022-08-01T08:35:05;22.10;66.10
61351;DHT22;47119;49.130;9.218;2022-08-01T08:37:37;22.05;66.23
61351;DHT22;47119;49.130;9.218;2022-08-01T08:40:32;22.13;65.35
61351;DHT22;47119;49.130;9.218;2022-08-01T08:43:29;22.11;66.13
61351;DHT22;47119;49.130;9.218;2022-08-01T08:46:11;22.08;66.67
61351;DHT22;47119;49.130;9.218;2022-08-01T08:48:42;22.07;65.62
61351;DHT22;47119;49.130;9.218;2022-08-01T08:51:10;22.03;66.71
61351;DHT22;47119;49.130;9.218;2022-08-01T08:53:47;22.13;65.13
61351;DHT22;47119;49.130;9.218;2022-08-01T08:56:20;22.10;66.00
61351;DHT22;47119;49.130;9.218;2022-08-01T08:58:51;22.13;65.93
61351;DHT22;47119;49.130;9.218;2022-08-01T09:01:19;22.08;66.58
61351;DHT22;47119;49.130;9.218;2022-08-01T09:03:47;22.10;65.53
61351;DHT22;47119;49.130;9.218;2022-08-01T09:06:14;22.07;66.31
61351;DHT22;47119;49.130;9.218;2022-08-01T09:08:45;22.07;66.30
61351;DHT22;47119;49.130;9.218;2022-08-01T09:11:12;22.11;65.52
61351;DHT22;47119;49.130;9.218;2022-08-01T09:14:02;22.15;65.55
61351;DHT22;47119;49.130;9.218;2022-08-01T09:16:35;22.14;65.65
61351;DHT22;47119;49.130;9.218;2022-08-01T09:19:09;22.13;65.34
61351;DHT22;47119;49.130;9.218;2022-08-01T09:21:57;22.14;65.76
61351;DHT22;47119;49.130;9.218;2022-08-01T09:24:26;22.14;65.98
61351;DHT22;47119;49.130;9.218;2022-08-01T09:26:58;22.10;66.11
61351;DHT22;47119;49.130;9.218;2022-08-01T09:29:29;22.14;65.61
61351;DHT22;47119;49.130;9.218;2022-08-01T09:32:13;22.10;65.83
61351;DHT22;47119;49.130;9.218;2022-08-01T09:38:15;22.14;66.10
61351;DHT22;47119;49.130;9.218;2022-08-01T09:40:45;22.05;66.96
61351;DHT22;47119;49.130;9.218;2022-08-01T09:43:23;22.05;66.61
61351;DHT22;47119;49.130;9.218;2022-08-01T09:45:54;22.10;66.04
61351;DHT22;47119;49.130;9.218;2022-08-01T09:48:22;22.17;65.98
61351;DHT22;47119;49.130;9.218;2022-08-01T09:50:56;22.14;66.29
61351;DHT22;47119;49.130;9.218;2022-08-01T09:53:40;22.11;66.61
61351;DHT22;47119;49.130;9.218;2022-08-01T09:56:09;22.10;66.44
61351;DHT22;47119;49.130;9.218;2022-08-01T09:58:53;22.14;66.10
61351;DHT22;47119;49.130;9.218;2022-08-01T10:01:25;22.20;65.86
61351;DHT22;47119;49.130;9.218;2022-08-01T10:04:16;22.20;65.78
61351;DHT22;47119;49.130;9.218;2022-08-01T10:06:46;22.21;65.57
61351;DHT22;47119;49.130;9.218;2022-08-01T10:09:43;22.17;65.97
61351;DHT22;47119;49.130;9.218;2022-08-01T10:12:27;22.21;65.74
61351;DHT22;47119;49.130;9.218;2022-08-01T10:15:19;22.18;66.03
61351;DHT22;47119;49.130;9.218;2022-08-01T10:17:56;22.15;66.40
61351;DHT22;47119;49.130;9.218;2022-08-01T10:20:33;22.15;66.68
61351;DHT22;47119;49.130;9.218;2022-08-01T10:23:11;22.15;66.27
61351;DHT22;47119;49.130;9.218;2022-08-01T10:25:43;22.17;66.34
61351;DHT22;47119;49.130;9.218;2022-08-01T10:28:18;22.15;66.41
61351;DHT22;47119;49.130;9.218;2022-08-01T10:30:48;22.18;65.84
61351;DHT22;47119;49.130;9.218;2022-08-01T10:33:17;22.18;65.90
61351;DHT22;47119;49.130;9.218;2022-08-01T10:35:45;22.15;66.90
61351;DHT22;47119;49.130;9.218;2022-08-01T10:38:47;22.17;66.94
61351;DHT22;47119;49.130;9.218;2022-08-01T10:41:15;22.22;66.21
61351;DHT22;47119;49.130;9.218;2022-08-01T10:43:47;22.21;66.02
61351;DHT22;47119;49.130;9.218;2022-08-01T10:46:14;22.20;66.44
61351;DHT22;47119;49.130;9.218;2022-08-01T10:48:48;22.20;65.97
61351;DHT22;47119;49.130;9.218;2022-08-01T10:51:18;22.22;65.87
61351;DHT22;47119;49.130;9.218;2022-08-01T10:53:49;22.20;66.18
61351;DHT22;47119;49.130;9.218;2022-08-01T10:56:20;22.15;66.29
61351;DHT22;47119;49.130;9.218;2022-08-01T10:59:00;22.10;67.20
61351;DHT22;47119;49.130;9.218;2022-08-01T11:01:30;22.18;66.37
61351;DHT22;47119;49.130;9.218;2022-08-01T11:04:14;22.20;66.39
61351;DHT22;47119;49.130;9.218;2022-08-01T11:07:01;22.20;66.11
61351;DHT22;47119;49.130;9.218;2022-08-01T11:09:38;22.13;67.15
61351;DHT22;47119;49.130;9.218;2022-08-01T11:12:11;22.18;66.73
61351;DHT22;47119;49.130;9.218;2022-08-01T11:21:18;22.25;65.31
61351;DHT22;47119;49.130;9.218;2022-08-01T11:23:54;22.24;65.48
61351;DHT22;47119;49.130;9.218;2022-08-01T11:27:16;22.24;65.36
61351;DHT22;47119;49.130;9.218;2022-08-01T11:29:44;22.24;65.46
61351;DHT22;47119;49.130;9.218;2022-08-01T11:32:55;22.22;65.95
61351;DHT22;47119;49.130;9.218;2022-08-01T11:35:25;22.27;65.72
61351;DHT22;47119;49.130;9.218;2022-08-01T11:37:56;22.28;65.58
61351;DHT22;47119;49.130;9.218;2022-08-01T11:40:26;22.25;65.21
61351;DHT22;47119;49.130;9.218;2022-08-01T11:43:32;22.24;65.99
61351;DHT22;47119;49.130;9.218;2022-08-01T11:46:00;22.28;65.56
61351;DHT22;47119;49.130;9.218;2022-08-01T11:48:27;22.27;65.45
61351;DHT22;47119;49.130;9.218;2022-08-01T11:50:56;22.25;65.78
61351;DHT22;47119;49.130;9.218;2022-08-01T11:53:29;22.28;65.17
61351;DHT22;47119;49.130;9.218;2022-08-01T11:55:58;22.28;65.69
61351;DHT22;47119;49.130;9.218;2022-08-01T11:58:47;22.25;66.07
61351;DHT22;47119;49.130;9.218;2022-08-01T12:01:15;22.27;65.41
61351;DHT22;47119;49.130;9.218;2022-08-01T12:04:03;22.22;66.39
61351;DHT22;47119;49.130;9.218;2022-08-01T12:06:33;22.28;66.11
61351;DHT22;47119;49.130;9.218;2022-08-01T12:09:22;22.31;65.27
61351;DHT22;47119;49.130;9.218;2022-08-01T12:12:04;22.28;65.47
61351;DHT22;47119;49.130;9.218;2022-08-01T12:14:34;22.24;66.04
61351;DHT22;47119;49.130;9.218;2022-08-01T12:17:12;22.27;65.93
61351;DHT22;47119;49.130;9.218;2022-08-01T12:19:40;22.30;65.58
61351;DHT22;47119;49.130;9.218;2022-08-01T12:22:12;22.27;65.27
61351;DHT22;47119;49.130;9.218;2022-08-01T12:24:42;22.28;66.07
61351;DHT22;47119;49.130;9.218;2022-08-01T12:27:10;22.28;65.69
61351;DHT22;47119;49.130;9.218;2022-08-01T12:29:42;22.27;65.76
61351;DHT22;47119;49.130;9.218;2022-08-01T12:32:25;22.22;66.66
61351;DHT22;47119;49.130;9.218;2022-08-01T12:35:01;22.25;65.75
61351;DHT22;47119;49.130;9.218;2022-08-01T12:37:29;22.24;66.02
61351;DHT22;47119;49.130;9.218;2022-08-01T12:40:27;22.30;65.86
61351;DHT22;47119;49.130;9.218;2022-08-01T12:42:59;22.20;66.30
61351;DHT22;47119;49.130;9.218;2022-08-01T12:45:30;22.21;66.12
61351;DHT22;47119;49.130;9.218;2022-08-01T12:48:01;22.10;67.27
61351;DHT22;47119;49.130;9.218;2022-08-01T12:50:34;22.24;66.20
61351;DHT22;47119;49.130;9.218;2022-08-01T12:53:05;22.27;66.16
61351;DHT22;47119;49.130;9.218;2022-08-01T12:55:54;22.25;65.54
61351;DHT22;47119;49.130;9.218;2022-08-01T12:58:26;22.28;65.23
61351;DHT22;47119;49.130;9.218;2022-08-01T13:01:03;22.31;65.13
61351;DHT22;47119;49.130;9.218;2022-08-01T13:03:51;22.17;66.65
61351;DHT22;47119;49.130;9.218;2022-08-01T13:06:28;22.18;66.86
61351;DHT22;47119;49.130;9.218;2022-08-01T13:09:04;22.07;66.90
61351;DHT22;47119;49.130;9.218;2022-08-01T13:11:33;22.17;66.30
61351;DHT22;47119;49.130;9.218;2022-08-01T13:14:27;22.28;65.78
61351;DHT22;47119;49.130;9.218;2022-08-01T13:17:30;22.33;65.41
61351;DHT22;47119;49.130;9.218;2022-08-01T13:20:04;22.25;66.94
61351;DHT22;47119;49.130;9.218;2022-08-01T13:22:33;22.27;66.10
61351;DHT22;47119;49.130;9.218;2022-08-01T13:25:52;22.28;66.65
61351;DHT22;47119;49.130;9.218;2022-08-01T13:28:38;22.24;66.28
61351;DHT22;47119;49.130;9.218;2022-08-01T13:31:32;22.30;66.34
61351;DHT22;47119;49.130;9.218;2022-08-01T13:34:35;22.34;65.75
61351;DHT22;47119;49.130;9.218;2022-08-01T13:37:05;22.27;66.18
61351;DHT22;47119;49.130;9.218;2022-08-01T13:39:34;22.27;66.36
61351;DHT22;47119;49.130;9.218;2022-08-01T13:42:07;22.31;65.93
61351;DHT22;47119;49.130;9.218;2022-08-01T13:44:51;22.34;65.36
61351;DHT22;47119;49.130;9.218;2022-08-01T13:47:20;22.15;67.38
61351;DHT22;47119;49.130;9.218;2022-08-01T13:49:47;22.25;66.21
61351;DHT22;47119;49.130;9.218;2022-08-01T13:52:14;22.30;65.93
61351;DHT22;47119;49.130;9.218;2022-08-01T13:54:41;22.33;65.93
61351;DHT22;47119;49.130;9.218;2022-08-01T13:57:11;22.27;66.42
61351;DHT22;47119;49.130;9.218;2022-08-01T13:59:39;22.35;65.57
61351;DHT22;47119;49.130;9.218;2022-08-01T14:02:10;22.27;66.65
61351;DHT22;47119;49.130;9.218;2022-08-01T14:04:39;22.35;66.21
61351;DHT22;47119;49.130;9.218;2022-08-01T14:07:06;22.31;65.58
61351;DHT22;47119;49.130;9.218;2022-08-01T14:09:33;22.30;65.14
61351;DHT22;47119;49.130;9.218;2022-08-01T14:12:04;22.34;65.41
61351;DHT22;47119;49.130;9.218;2022-08-01T14:14:34;22.38;65.12
61351;DHT22;47119;49.130;9.218;2022-08-01T14:17:02;22.35;65.17
61351;DHT22;47119;49.130;9.218;2022-08-01T14:19:33;22.34;65.53
61351;DHT22;47119;49.130;9.218;2022-08-01T14:22:02;22.34;66.15
61351;DHT22;47119;49.130;9.218;2022-08-01T14:24:32;22.31;65.63
61351;DHT22;47119;49.130;9.218;2022-08-01T14:26:59;22.34;65.41
61351;DHT22;47119;49.130;9.218;2022-08-01T14:29:26;22.30;66.51
61351;DHT22;47119;49.130;9.218;2022-08-01T14:31:55;22.28;65.83
61351;DHT22;47119;49.130;9.218;2022-08-01T14:34:22;22.30;66.13
61351;DHT22;47119;49.130;9.218;2022-08-01T14:36:53;22.28;66.28
61351;DHT22;47119;49.130;9.218;2022-08-01T14:39:23;22.30;66.13
61351;DHT22;47119;49.130;9.218;2022-08-01T14:41:50;22.28;66.13
61351;DHT22;47119;49.130;9.218;2022-08-01T14:44:17;22.35;65.67
61351;DHT22;47119;49.130;9.218;2022-08-01T14:46:44;22.33;65.96
61351;DHT22;47119;49.130;9.218;2022-08-01T14:49:15;22.33;66.02
61351;DHT22;47119;49.130;9.218;2022-08-01T14:51:42;22.31;66.11
61351;DHT22;47119;49.130;9.218;2022-08-01T14:54:11;22.21;67.00
61351;DHT22;47119;49.130;9.218;2022-08-01T14:56:38;22.25;65.70
61351;DHT22;47119;49.130;9.218;2022-08-01T14:59:10;22.28;66.40
61351;DHT22;47119;49.130;9.218;2022-08-01T15:01:37;22.27;66.20
61351;DHT22;47119;49.130;9.218;2022-08-01T15:04:05;22.27;65.99
61351;DHT22;47119;49.130;9.218;2022-08-01T15:06:32;22.34;65.79
61351;DHT22;47119;49.130;9.218;2022-08-01T15:08:59;22.30;66.13
61351;DHT22;47119;49.130;9.218;2022-08-01T15:11:28;22.33;66.40
61351;DHT22;47119;49.130;9.218;2022-08-01T15:14:00;22.33;66.08
61351;DHT22;47119;49.130;9.218;2022-08-01T15:16:44;22.30;66.23
61351;DHT22;47119;49.130;9.218;2022-08-01T15:19:14;22.31;66.10
61351;DHT22;47119;49.130;9.218;2022-08-01T15:21:43;22.27;66.74
61351;DHT22;47119;49.130;9.218;2022-08-01T15:24:13;22.21;66.04
61351;DHT22;47119;49.130;9.218;2022-08-01T15:26:41;22.28;66.06
61351;DHT22;47119;49.130;9.218;2022-08-01T15:29:10;22.18;66.97
61351;DHT22;47119;49.130;9.218;2022-08-01T15:31:39;22.20;66.69
61351;DHT22;47119;49.130;9.218;2022-08-01T15:34:06;22.30;66.29
61351;DHT22;47119;49.130;9.218;2022-08-01T15:36:36;22.28;65.96
61351;DHT22;47119;49.130;9.218;2022-08-01T15:39:04;22.31;65.76
61351;DHT22;47119;49.130;9.218;2022-08-01T15:41:33;22.33;65.60
61351;DHT22;47119;49.130;9.218;2022-08-01T15:44:05;22.20;66.95
61351;DHT22;47119;49.130;9.218;2022-08-01T15:46:32;22.24;66.39
61351;DHT22;47119;49.130;9.218;2022-08-01T15:49:04;22.27;66.12
61351;DHT22;47119;49.130;9.218;2022-08-01T15:51:34;22.31;64.74
61351;DHT22;47119;49.130;9.218;2022-08-01T15:54:01;22.34;64.79
61351;DHT22;47119;49.130;9.218;2022-08-01T15:56:31;22.34;65.74
61351;DHT22;47119;49.130;9.218;2022-08-01T15:58:59;22.37;65.16
61351;DHT22;47119;49.130;9.218;2022-08-01T16:01:27;22.31;65.57
61351;DHT22;47119;49.130;9.218;2022-08-01T16:03:56;22.34;65.30
61351;DHT22;47119;49.130;9.218;2022-08-01T16:06:25;22.28;66.31
61351;DHT22;47119;49.130;9.218;2022-08-01T16:08:55;22.38;64.25
61351;DHT22;47119;49.130;9.218;2022-08-01T16:11:23;22.38;65.20
61351;DHT22;47119;49.130;9.218;2022-08-01T16:13:52;22.35;65.38
61351;DHT22;47119;49.130;9.218;2022-08-01T16:16:30;22.38;64.61
61351;DHT22;47119;49.130;9.218;2022-08-01T16:18:59;22.37;64.90
61351;DHT22;47119;49.130;9.218;2022-08-01T16:21:26;22.35;65.26
61351;DHT22;47119;49.130;9.218;2022-08-01T16:23:53;22.35;64.60
61351;DHT22;47119;49.130;9.218;2022-08-01T16:26:23;22.40;63.89
61351;DHT22;47119;49.130;9.218;2022-08-01T16:28:50;22.40;64.55
61351;DHT22;47119;49.130;9.218;2022-08-01T16:31:23;22.40;64.50